sensor_id;sensor_type;location;lat;lon;timestamp;temperature;humidity
4604;DHT22;2314;48.272;11.562;2022-09-09T00:01:17;12.60;99.90
4604;DHT22;2314;48.272;11.562;2022-09-09T00:03:57;12.50;99.90
4604;DHT22;2314;48.272;11.562;2022-09-09T00:06:30;12.50;99.90
4604;DHT22;2314;48.272;11.562;2022-09-09T00:09:04;12.40;99.90
4604;DHT22;2314;48.272;11.562;2022-09-09T00:11:40;12.40;99.90
4604;DHT22;2314;48.272;11.562;2022-09-09T00:14:18;12.50;99.90
4604;DHT22;2314;48.272;11.562;2022-09-09T00:16:53;12.50;99.90
4604;DHT22;2314;48.272;11.562;2022-09-09T00:19:24;12.60;99.90
4604;DHT22;2314;48.272;11.562;2022-09-09T00:22:04;12.60;99.90
4604;DHT22;2314;48.272;11.562;2022-09-09T00:24:43;12.70;99.90
4604;DHT22;2314;48.272;11.562;2022-09-09T00:27:19;12.70;99.90
4604;DHT22;2314;48.272;11.562;2022-09-09T00:29:54;12.80;99.90
4604;DHT22;2314;48.272;11.562;2022-09-09T00:32:28;12.80;99.90
4604;DHT22;2314;48.272;11.562;2022-09-09T00:35:00;12.80;99.90
4604;DHT22;2314;48.272;11.562;2022-09-09T00:37:31;12.80;99.90
4604;DHT22;2314;48.272;11.562;2022-09-09T00:40:02;12.80;99.90
4604;DHT22;2314;48.272;11.562;2022-09-09T00:42:41;12.80;99.90
4604;DHT22;2314;48.272;11.562;2022-09-09T00:45:24;12.80;99.90
4604;DHT22;2314;48.272;11.562;2022-09-09T00:48:08;12.70;99.90
4604;DHT22;2314;48.272;11.562;2022-09-09T00:50:45;12.60;99.90
4604;DHT22;2314;48.272;11.562;2022-09-09T00:53:33;12.70;99.90
4604;DHT22;2314;48.272;11.562;2022-09-09T00:56:12;12.60;99.90
4604;DHT22;2314;48.272;11.562;2022-09-09T00:58:42;12.60;99.90
4604;DHT22;2314;48.272;11.562;2022-09-09T01:01:12;12.60;99.90
4604;DHT22;2314;48.272;11.562;2022-09-09T01:03:45;12.60;99.90
4604;DHT22;2314;48.272;11.562;2022-09-09T01:06:16;12.60;99.90
4604;DHT22;2314;48.272;11.562;2022-09-09T01:09:07;12.50;99.90
4604;DHT22;2314;48.272;11.562;2022-09-09T01:11:46;12.50;99.90
4604;DHT22;2314;48.272;11.562;2022-09-09T01:14:27;12.40;99.90
4604;DHT22;2314;48.272;11.562;2022-09-09T01:17:02;12.40;99.90
4604;DHT22;2314;48.272;11.562;2022-09-09T01:19:39;12.40;99.90
4604;DHT22;2314;48.272;11.562;2022-09-09T01:22:19;12.40;99.90
4604;DHT22;2314;48.272;11.562;2022-09-09T01:27:54;12.30;99.90
4604;DHT22;2314;48.272;11.562;2022-09-09T01:30:23;12.30;99.90
4604;DHT22;2314;48.272;11.562;2022-09-09T01:32:54;12.30;99.90
4604;DHT22;2314;48.272;11.562;2022-09-09T01:35:31;12.20;99.90
4604;DHT22;2314;48.272;11.562;2022-09-09T01:38:04;12.30;99.90
4604;DHT22;2314;48.272;11.562;2022-09-09T01:40:31;12.30;99.90
4604;DHT22;2314;48.272;11.562;2022-09-09T01:43:00;12.30;99.90
4604;DHT22;2314;48.272;11.562;2022-09-09T01:45:27;12.30;99.90
4604;DHT22;2314;48.272;11.562;2022-09-09T01:47:55;12.40;99.90
4604;DHT22;2314;48.272;11.562;2022-09-09T01:50:23;12.40;99.90
4604;DHT22;2314;48.272;11.562;2022-09-09T01:52:53;12.40;99.90
4604;DHT22;2314;48.272;11.562;2022-09-09T01:55:28;12.40;99.90
4604;DHT22;2314;48.272;11.562;2022-09-09T01:58:08;12.40;99.90
4604;DHT22;2314;48.272;11.562;2022-09-09T02:00:44;12.40;99.90
4604;DHT22;2314;48.272;11.562;2022-09-09T02:03:20;12.40;99.90
4604;DHT22;2314;48.272;11.562;2022-09-09T02:06:07;12.40;99.90
4604;DHT22;2314;48.272;11.562;2022-09-09T02:08:45;12.40;99.90
4604;DHT22;2314;48.272;11.562;2022-09-09T02:11:14;12.40;99.90
4604;DHT22;2314;48.272;11.562;2022-09-09T02:13:46;12.40;99.90
4604;DHT22;2314;48.272;11.562;2022-09-09T02:16:18;12.40;99.90
4604;DHT22;2314;48.272;11.562;2022-09-09T02:18:50;12.40;99.90
4604;DHT22;2314;48.272;11.562;2022-09-09T02:21:18;12.40;99.90
4604;DHT22;2314;48.272;11.562;2022-09-09T02:23:47;12.40;99.90
4604;DHT22;2314;48.272;11.562;2022-09-09T02:26:19;12.40;99.90
4604;DHT22;2314;48.272;11.562;2022-09-09T02:28:50;12.40;99.90
4604;DHT22;2314;48.272;11.562;2022-09-09T02:31:20;12.50;99.90
4604;DHT22;2314;48.272;11.562;2022-09-09T02:33:53;12.50;99.90
4604;DHT22;2314;48.272;11.562;2022-09-09T02:36:24;12.50;99.90
4604;DHT22;2314;48.272;11.562;2022-09-09T02:38:52;12.50;99.90
4604;DHT22;2314;48.272;11.562;2022-09-09T02:41:20;12.50;99.90
4604;DHT22;2314;48.272;11.562;2022-09-09T02:43:52;12.40;99.90
4604;DHT22;2314;48.272;11.562;2022-09-09T02:46:33;12.40;99.90
4604;DHT22;2314;48.272;11.562;2022-09-09T02:49:10;12.40;99.90
4604;DHT22;2314;48.272;11.562;2022-09-09T02:51:51;12.40;99.90
4604;DHT22;2314;48.272;11.562;2022-09-09T02:54:26;12.40;99.90
4604;DHT22;2314;48.272;11.562;2022-09-09T02:56:59;12.30;99.90
4604;DHT22;2314;48.272;11.562;2022-09-09T02:59:30;12.20;99.90
4604;DHT22;2314;48.272;11.562;2022-09-09T03:01:57;12.20;99.90
4604;DHT22;2314;48.272;11.562;2022-09-09T03:04:24;12.20;99.90
4604;DHT22;2314;48.272;11.562;2022-09-09T03:06:51;12.10;99.90
4604;DHT22;2314;48.272;11.562;2022-09-09T03:09:18;12.10;99.90
4604;DHT22;2314;48.272;11.562;2022-09-09T03:11:45;12.10;99.90
4604;DHT22;2314;48.272;11.562;2022-09-09T03:14:12;12.20;99.90
4604;DHT22;2314;48.272;11.562;2022-09-09T03:16:41;12.30;99.90
4604;DHT22;2314;48.272;11.562;2022-09-09T03:19:08;12.40;99.90
4604;DHT22;2314;48.272;11.562;2022-09-09T03:21:35;12.40;99.90
4604;DHT22;2314;48.272;11.562;2022-09-09T03:24:02;12.50;99.90
4604;DHT22;2314;48.272;11.562;2022-09-09T03:26:29;12.50;99.90
4604;DHT22;2314;48.272;11.562;2022-09-09T03:28:57;12.50;99.90
4604;DHT22;2314;48.272;11.562;2022-09-09T03:31:26;12.60;99.90
4604;DHT22;2314;48.272;11.562;2022-09-09T03:33:56;12.60;99.90
4604;DHT22;2314;48.272;11.562;2022-09-09T03:36:24;12.60;99.90
4604;DHT22;2314;48.272;11.562;2022-09-09T03:38:53;12.70;99.90
4604;DHT22;2314;48.272;11.562;2022-09-09T03:41:21;12.70;99.90
4604;DHT22;2314;48.272;11.562;2022-09-09T03:43:49;12.70;99.90
4604;DHT22;2314;48.272;11.562;2022-09-09T03:46:16;12.70;99.90
4604;DHT22;2314;48.272;11.562;2022-09-09T03:48:43;12.70;99.90
4604;DHT22;2314;48.272;11.562;2022-09-09T03:51:12;12.70;99.90
4604;DHT22;2314;48.272;11.562;2022-09-09T03:53:39;12.70;99.90
4604;DHT22;2314;48.272;11.562;2022-09-09T03:56:07;12.70;99.90
4604;DHT22;2314;48.272;11.562;2022-09-09T03:58:35;12.70;99.90
4604;DHT22;2314;48.272;11.562;2022-09-09T04:01:03;12.70;99.90
4604;DHT22;2314;48.272;11.562;2022-09-09T04:03:33;12.70;99.90
4604;DHT22;2314;48.272;11.562;2022-09-09T04:06:02;12.70;99.90
4604;DHT22;2314;48.272;11.562;2022-09-09T04:08:31;12.70;99.90
4604;DHT22;2314;48.272;11.562;2022-09-09T04:10:58;12.70;99.90
4604;DHT22;2314;48.272;11.562;2022-09-09T04:13:28;12.70;99.90
4604;DHT22;2314;48.272;11.562;2022-09-09T04:15:57;12.60;99.90
4604;DHT22;2314;48.272;11.562;2022-09-09T04:18:25;12.70;99.90
4604;DHT22;2314;48.272;11.562;2022-09-09T04:20:54;12.60;99.90
4604;DHT22;2314;48.272;11.562;2022-09-09T04:23:23;12.70;99.90
4604;DHT22;2314;48.272;11.562;2022-09-09T04:25:54;12.80;99.90
4604;DHT22;2314;48.272;11.562;2022-09-09T04:28:24;12.80;99.90
4604;DHT22;2314;48.272;11.562;2022-09-09T04:30:52;12.90;99.90
4604;DHT22;2314;48.272;11.562;2022-09-09T04:33:19;12.90;99.90
4604;DHT22;2314;48.272;11.562;2022-09-09T04:35:48;12.90;99.90
4604;DHT22;2314;48.272;11.562;2022-09-09T04:38:16;12.90;99.90
4604;DHT22;2314;48.272;11.562;2022-09-09T04:40:46;12.90;99.90
4604;DHT22;2314;48.272;11.562;2022-09-09T04:43:15;12.90;99.90
4604;DHT22;2314;48.272;11.562;2022-09-09T04:45:42;12.90;99.90
4604;DHT22;2314;48.272;11.562;2022-09-09T04:48:09;12.90;99.90
4604;DHT22;2314;48.272;11.562;2022-09-09T04:50:36;12.80;99.90
4604;DHT22;2314;48.272;11.562;2022-09-09T04:53:04;12.80;99.90
4604;DHT22;2314;48.272;11.562;2022-09-09T04:55:32;12.80;99.90
4604;DHT22;2314;48.272;11.562;2022-09-09T04:58:03;12.80;99.90
4604;DHT22;2314;48.272;11.562;2022-09-09T05:00:33;12.80;99.90
4604;DHT22;2314;48.272;11.562;2022-09-09T05:03:03;12.80;99.90
4604;DHT22;2314;48.272;11.562;2022-09-09T05:05:31;12.70;99.90
4604;DHT22;2314;48.272;11.562;2022-09-09T05:08:01;12.70;99.90
4604;DHT22;2314;48.272;11.562;2022-09-09T05:10:29;12.80;99.90
4604;DHT22;2314;48.272;11.562;2022-09-09T05:12:56;12.80;99.90
4604;DHT22;2314;48.272;11.562;2022-09-09T05:15:23;12.80;99.90
4604;DHT22;2314;48.272;11.562;2022-09-09T05:17:51;12.90;99.90
4604;DHT22;2314;48.272;11.562;2022-09-09T05:20:19;13.00;99.90
4604;DHT22;2314;48.272;11.562;2022-09-09T05:22:46;13.00;99.90
4604;DHT22;2314;48.272;11.562;2022-09-09T05:25:15;13.00;99.90
4604;DHT22;2314;48.272;11.562;2022-09-09T05:27:42;13.00;99.90
4604;DHT22;2314;48.272;11.562;2022-09-09T05:30:09;13.00;99.90
4604;DHT22;2314;48.272;11.562;2022-09-09T05:32:37;13.10;99.90
4604;DHT22;2314;48.272;11.562;2022-09-09T05:35:06;13.10;99.90
4604;DHT22;2314;48.272;11.562;2022-09-09T05:37:33;13.10;99.90
4604;DHT22;2314;48.272;11.562;2022-09-09T05:40:00;13.10;99.90
4604;DHT22;2314;48.272;11.562;2022-09-09T05:42:30;13.20;99.90
4604;DHT22;2314;48.272;11.562;2022-09-09T05:44:57;13.20;99.90
4604;DHT22;2314;48.272;11.562;2022-09-09T05:47:24;13.30;99.90
4604;DHT22;2314;48.272;11.562;2022-09-09T05:49:53;13.50;99.90
4604;DHT22;2314;48.272;11.562;2022-09-09T05:52:22;13.60;99.90
4604;DHT22;2314;48.272;11.562;2022-09-09T05:54:51;13.70;99.90
4604;DHT22;2314;48.272;11.562;2022-09-09T05:57:19;13.80;99.90
4604;DHT22;2314;48.272;11.562;2022-09-09T05:59:46;13.80;99.90
4604;DHT22;2314;48.272;11.562;2022-09-09T06:02:13;13.80;99.90
4604;DHT22;2314;48.272;11.562;2022-09-09T06:04:40;13.80;99.90
4604;DHT22;2314;48.272;11.562;2022-09-09T06:07:07;13.90;99.90
4604;DHT22;2314;48.272;11.562;2022-09-09T06:09:35;13.90;99.90
4604;DHT22;2314;48.272;11.562;2022-09-09T06:12:02;14.00;99.90
4604;DHT22;2314;48.272;11.562;2022-09-09T06:14:30;14.10;99.90
4604;DHT22;2314;48.272;11.562;2022-09-09T06:16:57;14.20;99.90
4604;DHT22;2314;48.272;11.562;2022-09-09T06:19:24;14.30;99.90
4604;DHT22;2314;48.272;11.562;2022-09-09T06:21:52;14.30;99.90
4604;DHT22;2314;48.272;11.562;2022-09-09T06:24:20;14.30;99.90
4604;DHT22;2314;48.272;11.562;2022-09-09T06:26:49;14.30;99.90
4604;DHT22;2314;48.272;11.562;2022-09-09T06:29:16;14.40;99.90
4604;DHT22;2314;48.272;11.562;2022-09-09T06:31:45;14.50;99.90
4604;DHT22;2314;48.272;11.562;2022-09-09T06:34:13;14.60;99.90
4604;DHT22;2314;48.272;11.562;2022-09-09T06:36:40;14.60;99.90
4604;DHT22;2314;48.272;11.562;2022-09-09T06:39:07;14.60;99.90
4604;DHT22;2314;48.272;11.562;2022-09-09T06:41:36;14.70;99.90
4604;DHT22;2314;48.272;11.562;2022-09-09T06:44:05;14.80;99.90
4604;DHT22;2314;48.272;11.562;2022-09-09T06:46:32;14.90;99.90
4604;DHT22;2314;48.272;11.562;2022-09-09T06:49:01;15.10;99.90
4604;DHT22;2314;48.272;11.562;2022-09-09T06:51:30;15.10;99.90
4604;DHT22;2314;48.272;11.562;2022-09-09T06:53:59;15.10;99.90
4604;DHT22;2314;48.272;11.562;2022-09-09T06:56:29;15.10;99.90
4604;DHT22;2314;48.272;11.562;2022-09-09T06:58:58;15.10;99.90
4604;DHT22;2314;48.272;11.562;2022-09-09T07:01:29;15.00;99.90
4604;DHT22;2314;48.272;11.562;2022-09-09T07:03:58;15.00;99.90
4604;DHT22;2314;48.272;11.562;2022-09-09T07:06:27;14.90;99.90
4604;DHT22;2314;48.272;11.562;2022-09-09T07:08:57;14.80;99.90
4604;DHT22;2314;48.272;11.562;2022-09-09T07:11:26;14.70;99.90
4604;DHT22;2314;48.272;11.562;2022-09-09T07:13:56;14.70;99.90
4604;DHT22;2314;48.272;11.562;2022-09-09T07:16:24;14.60;99.90
4604;DHT22;2314;48.272;11.562;2022-09-09T07:18:54;14.60;99.90
4604;DHT22;2314;48.272;11.562;2022-09-09T07:21:24;14.50;99.90
4604;DHT22;2314;48.272;11.562;2022-09-09T07:23:52;14.50;99.90
4604;DHT22;2314;48.272;11.562;2022-09-09T07:26:21;14.40;99.90
4604;DHT22;2314;48.272;11.562;2022-09-09T07:28:51;14.40;99.90
4604;DHT22;2314;48.272;11.562;2022-09-09T07:31:20;14.40;99.90
4604;DHT22;2314;48.272;11.562;2022-09-09T07:33:49;14.40;99.90
4604;DHT22;2314;48.272;11.562;2022-09-09T07:36:19;14.40;99.90
4604;DHT22;2314;48.272;11.562;2022-09-09T07:38:49;14.50;99.90
4604;DHT22;2314;48.272;11.562;2022-09-09T07:41:21;14.60;99.90
4604;DHT22;2314;48.272;11.562;2022-09-09T07:43:50;14.70;99.90
4604;DHT22;2314;48.272;11.562;2022-09-09T07:46:20;14.70;99.90
4604;DHT22;2314;48.272;11.562;2022-09-09T07:48:50;14.80;99.90
4604;DHT22;2314;48.272;11.562;2022-09-09T07:51:21;14.90;99.90
4604;DHT22;2314;48.272;11.562;2022-09-09T07:53:52;14.90;99.90
4604;DHT22;2314;48.272;11.562;2022-09-09T07:56:20;15.00;99.90
4604;DHT22;2314;48.272;11.562;2022-09-09T07:58:50;14.90;99.90
4604;DHT22;2314;48.272;11.562;2022-09-09T08:01:20;14.90;99.90
4604;DHT22;2314;48.272;11.562;2022-09-09T08:03:53;15.00;99.90
4604;DHT22;2314;48.272;11.562;2022-09-09T08:06:26;15.00;99.90
4604;DHT22;2314;48.272;11.562;2022-09-09T08:08:53;15.10;99.90
4604;DHT22;2314;48.272;11.562;2022-09-09T08:11:22;15.10;99.90
4604;DHT22;2314;48.272;11.562;2022-09-09T08:13:51;15.20;99.90
4604;DHT22;2314;48.272;11.562;2022-09-09T08:16:20;15.20;99.90
4604;DHT22;2314;48.272;11.562;2022-09-09T08:18:48;15.10;99.90
4604;DHT22;2314;48.272;11.562;2022-09-09T08:21:18;15.20;99.90
4604;DHT22;2314;48.272;11.562;2022-09-09T08:23:49;15.20;99.90
4604;DHT22;2314;48.272;11.562;2022-09-09T08:26:19;15.30;99.90
4604;DHT22;2314;48.272;11.562;2022-09-09T08:28:49;15.40;99.90
4604;DHT22;2314;48.272;11.562;2022-09-09T08:31:19;15.30;99.90
4604;DHT22;2314;48.272;11.562;2022-09-09T08:33:48;15.40;99.90
4604;DHT22;2314;48.272;11.562;2022-09-09T08:36:18;15.40;99.90
4604;DHT22;2314;48.272;11.562;2022-09-09T08:38:50;15.50;99.90
4604;DHT22;2314;48.272;11.562;2022-09-09T08:41:46;15.50;99.90
4604;DHT22;2314;48.272;11.562;2022-09-09T08:44:36;15.70;99.90
4604;DHT22;2314;48.272;11.562;2022-09-09T08:47:23;15.80;99.90
4604;DHT22;2314;48.272;11.562;2022-09-09T08:50:05;15.70;99.90
4604;DHT22;2314;48.272;11.562;2022-09-09T08:52:48;15.70;99.90
4604;DHT22;2314;48.272;11.562;2022-09-09T08:55:25;15.70;99.90
4604;DHT22;2314;48.272;11.562;2022-09-09T08:57:58;15.70;99.90
4604;DHT22;2314;48.272;11.562;2022-09-09T09:00:32;15.90;99.90
4604;DHT22;2314;48.272;11.562;2022-09-09T09:03:09;16.00;99.90
4604;DHT22;2314;48.272;11.562;2022-09-09T09:05:46;16.10;99.90
4604;DHT22;2314;48.272;11.562;2022-09-09T09:08:20;16.10;99.90
4604;DHT22;2314;48.272;11.562;2022-09-09T09:10:57;16.20;99.90
4604;DHT22;2314;48.272;11.562;2022-09-09T09:13:32;16.20;99.90
4604;DHT22;2314;48.272;11.562;2022-09-09T09:16:10;16.30;99.90
4604;DHT22;2314;48.272;11.562;2022-09-09T09:18:41;16.40;99.90
4604;DHT22;2314;48.272;11.562;2022-09-09T09:21:12;16.40;99.90
4604;DHT22;2314;48.272;11.562;2022-09-09T09:23:49;16.60;99.90
4604;DHT22;2314;48.272;11.562;2022-09-09T09:26:24;16.70;99.90
4604;DHT22;2314;48.272;11.562;2022-09-09T09:28:56;16.80;99.90
4604;DHT22;2314;48.272;11.562;2022-09-09T09:31:23;16.80;99.90
4604;DHT22;2314;48.272;11.562;2022-09-09T09:33:53;16.80;99.90
4604;DHT22;2314;48.272;11.562;2022-09-09T09:36:25;16.90;99.90
4604;DHT22;2314;48.272;11.562;2022-09-09T09:39:03;17.10;99.90
4604;DHT22;2314;48.272;11.562;2022-09-09T09:41:34;17.40;99.90
4604;DHT22;2314;48.272;11.562;2022-09-09T09:44:03;17.70;99.90
4604;DHT22;2314;48.272;11.562;2022-09-09T09:46:31;17.90;99.90
4604;DHT22;2314;48.272;11.562;2022-09-09T09:48:59;17.90;99.90
4604;DHT22;2314;48.272;11.562;2022-09-09T09:51:28;17.80;99.90
4604;DHT22;2314;48.272;11.562;2022-09-09T09:54:09;17.80;99.90
4604;DHT22;2314;48.272;11.562;2022-09-09T09:56:46;17.70;99.90
4604;DHT22;2314;48.272;11.562;2022-09-09T09:59:32;17.70;99.90
4604;DHT22;2314;48.272;11.562;2022-09-09T10:02:17;17.70;99.90
4604;DHT22;2314;48.272;11.562;2022-09-09T10:04:46;17.60;99.90
4604;DHT22;2314;48.272;11.562;2022-09-09T10:07:16;17.50;99.90
4604;DHT22;2314;48.272;11.562;2022-09-09T10:09:45;17.50;99.90
4604;DHT22;2314;48.272;11.562;2022-09-09T10:12:23;17.30;99.90
4604;DHT22;2314;48.272;11.562;2022-09-09T10:15:00;17.20;99.90
4604;DHT22;2314;48.272;11.562;2022-09-09T10:17:39;17.10;99.90
4604;DHT22;2314;48.272;11.562;2022-09-09T10:20:17;17.10;99.90
4604;DHT22;2314;48.272;11.562;2022-09-09T10:22:52;17.10;99.90
4604;DHT22;2314;48.272;11.562;2022-09-09T10:25:33;17.10;99.90
4604;DHT22;2314;48.272;11.562;2022-09-09T10:28:30;17.20;99.90
4604;DHT22;2314;48.272;11.562;2022-09-09T10:31:15;17.40;99.90
4604;DHT22;2314;48.272;11.562;2022-09-09T10:33:50;17.60;99.90
4604;DHT22;2314;48.272;11.562;2022-09-09T10:36:21;17.80;99.90
4604;DHT22;2314;48.272;11.562;2022-09-09T10:38:56;17.80;99.90
4604;DHT22;2314;48.272;11.562;2022-09-09T10:41:38;18.00;99.90
4604;DHT22;2314;48.272;11.562;2022-09-09T10:44:27;17.90;99.90
4604;DHT22;2314;48.272;11.562;2022-09-09T10:47:22;17.90;99.90
4604;DHT22;2314;48.272;11.562;2022-09-09T10:50:16;18.00;99.90
4604;DHT22;2314;48.272;11.562;2022-09-09T10:52:55;18.20;99.90
4604;DHT22;2314;48.272;11.562;2022-09-09T10:55:35;18.20;99.90
4604;DHT22;2314;48.272;11.562;2022-09-09T10:58:09;18.40;99.90
4604;DHT22;2314;48.272;11.562;2022-09-09T11:00:41;18.60;99.90
4604;DHT22;2314;48.272;11.562;2022-09-09T11:03:18;18.80;99.90
4604;DHT22;2314;48.272;11.562;2022-09-09T11:05:50;18.90;99.90
4604;DHT22;2314;48.272;11.562;2022-09-09T11:08:20;19.00;99.90
4604;DHT22;2314;48.272;11.562;2022-09-09T11:10:52;19.10;99.90
4604;DHT22;2314;48.272;11.562;2022-09-09T11:13:28;19.20;99.90
4604;DHT22;2314;48.272;11.562;2022-09-09T11:16:04;19.30;99.90
4604;DHT22;2314;48.272;11.562;2022-09-09T11:18:46;19.50;99.90
4604;DHT22;2314;48.272;11.562;2022-09-09T11:21:18;19.50;99.90
4604;DHT22;2314;48.272;11.562;2022-09-09T11:23:50;19.30;99.90
4604;DHT22;2314;48.272;11.562;2022-09-09T11:26:28;19.40;99.90
4604;DHT22;2314;48.272;11.562;2022-09-09T11:29:08;19.50;99.90
4604;DHT22;2314;48.272;11.562;2022-09-09T11:31:54;19.80;99.90
4604;DHT22;2314;48.272;11.562;2022-09-09T11:34:39;19.90;99.90
4604;DHT22;2314;48.272;11.562;2022-09-09T11:37:31;19.90;99.90
4604;DHT22;2314;48.272;11.562;2022-09-09T11:40:19;19.90;99.90
4604;DHT22;2314;48.272;11.562;2022-09-09T11:42:49;19.80;99.90
4604;DHT22;2314;48.272;11.562;2022-09-09T11:45:30;20.00;99.90
4604;DHT22;2314;48.272;11.562;2022-09-09T11:48:00;20.20;99.90
4604;DHT22;2314;48.272;11.562;2022-09-09T11:50:31;20.30;99.90
4604;DHT22;2314;48.272;11.562;2022-09-09T11:53:20;20.20;99.90
4604;DHT22;2314;48.272;11.562;2022-09-09T11:56:00;20.10;99.90
4604;DHT22;2314;48.272;11.562;2022-09-09T11:58:43;19.90;99.90
4604;DHT22;2314;48.272;11.562;2022-09-09T12:01:30;19.90;99.90
4604;DHT22;2314;48.272;11.562;2022-09-09T12:07:02;20.20;99.90
4604;DHT22;2314;48.272;11.562;2022-09-09T12:09:45;20.40;99.90
4604;DHT22;2314;48.272;11.562;2022-09-09T12:12:28;20.40;99.90
4604;DHT22;2314;48.272;11.562;2022-09-09T12:15:19;20.90;99.90
4604;DHT22;2314;48.272;11.562;2022-09-09T12:17:55;21.20;99.90
4604;DHT22;2314;48.272;11.562;2022-09-09T12:20:31;21.00;99.90
4604;DHT22;2314;48.272;11.562;2022-09-09T12:23:18;20.70;99.90
4604;DHT22;2314;48.272;11.562;2022-09-09T12:26:00;20.30;99.90
4604;DHT22;2314;48.272;11.562;2022-09-09T12:28:54;20.00;99.90
4604;DHT22;2314;48.272;11.562;2022-09-09T12:31:31;19.80;99.90
4604;DHT22;2314;48.272;11.562;2022-09-09T12:34:11;19.60;99.90
4604;DHT22;2314;48.272;11.562;2022-09-09T12:36:44;19.60;99.90
4604;DHT22;2314;48.272;11.562;2022-09-09T12:39:19;19.70;99.90
4604;DHT22;2314;48.272;11.562;2022-09-09T12:41:52;20.00;99.90
4604;DHT22;2314;48.272;11.562;2022-09-09T12:44:22;20.30;99.90
4604;DHT22;2314;48.272;11.562;2022-09-09T12:46:51;20.20;99.90
4604;DHT22;2314;48.272;11.562;2022-09-09T12:49:29;20.10;99.90
4604;DHT22;2314;48.272;11.562;2022-09-09T12:52:01;20.40;99.90
4604;DHT22;2314;48.272;11.562;2022-09-09T12:54:31;20.70;99.90
4604;DHT22;2314;48.272;11.562;2022-09-09T12:56:59;20.90;99.90
4604;DHT22;2314;48.272;11.562;2022-09-09T12:59:34;21.00;99.90
4604;DHT22;2314;48.272;11.562;2022-09-09T13:02:02;20.90;99.90
4604;DHT22;2314;48.272;11.562;2022-09-09T13:04:35;20.80;99.90
4604;DHT22;2314;48.272;11.562;2022-09-09T13:07:07;20.60;99.90
4604;DHT22;2314;48.272;11.562;2022-09-09T13:09:36;20.50;99.90
4604;DHT22;2314;48.272;11.562;2022-09-09T13:12:04;20.30;99.90
4604;DHT22;2314;48.272;11.562;2022-09-09T13:14:35;20.40;99.90
4604;DHT22;2314;48.272;11.562;2022-09-09T13:17:05;20.60;99.90
4604;DHT22;2314;48.272;11.562;2022-09-09T13:19:36;20.50;99.90
4604;DHT22;2314;48.272;11.562;2022-09-09T13:22:13;20.60;99.90
4604;DHT22;2314;48.272;11.562;2022-09-09T13:24:41;20.30;99.90
4604;DHT22;2314;48.272;11.562;2022-09-09T13:27:24;20.30;99.90
4604;DHT22;2314;48.272;11.562;2022-09-09T13:29:55;20.30;99.90
4604;DHT22;2314;48.272;11.562;2022-09-09T13:32:23;20.20;99.90
4604;DHT22;2314;48.272;11.562;2022-09-09T13:34:53;20.40;99.90
4604;DHT22;2314;48.272;11.562;2022-09-09T13:37:26;20.50;99.90
4604;DHT22;2314;48.272;11.562;2022-09-09T13:39:58;20.60;99.90
4604;DHT22;2314;48.272;11.562;2022-09-09T13:42:27;20.60;99.90
4604;DHT22;2314;48.272;11.562;2022-09-09T13:44:55;20.60;99.90
4604;DHT22;2314;48.272;11.562;2022-09-09T13:47:29;20.60;99.90
4604;DHT22;2314;48.272;11.562;2022-09-09T13:49:57;20.60;99.90
4604;DHT22;2314;48.272;11.562;2022-09-09T13:52:27;20.60;99.90
4604;DHT22;2314;48.272;11.562;2022-09-09T13:54:56;20.50;99.90
4604;DHT22;2314;48.272;11.562;2022-09-09T13:57:25;20.40;99.90
4604;DHT22;2314;48.272;11.562;2022-09-09T13:59:53;20.30;99.90
4604;DHT22;2314;48.272;11.562;2022-09-09T14:02:24;20.20;99.90
4604;DHT22;2314;48.272;11.562;2022-09-09T14:04:54;20.20;99.90
4604;DHT22;2314;48.272;11.562;2022-09-09T14:07:21;20.10;99.90
4604;DHT22;2314;48.272;11.562;2022-09-09T14:09:50;20.10;99.90
4604;DHT22;2314;48.272;11.562;2022-09-09T14:12:17;20.20;99.90
4604;DHT22;2314;48.272;11.562;2022-09-09T14:14:45;20.40;99.90
4604;DHT22;2314;48.272;11.562;2022-09-09T14:17:12;20.50;99.90
4604;DHT22;2314;48.272;11.562;2022-09-09T14:19:39;20.40;99.90
4604;DHT22;2314;48.272;11.562;2022-09-09T14:22:06;20.10;99.90
4604;DHT22;2314;48.272;11.562;2022-09-09T14:24:33;20.00;99.90
4604;DHT22;2314;48.272;11.562;2022-09-09T14:27:02;19.90;99.90
4604;DHT22;2314;48.272;11.562;2022-09-09T14:29:29;19.90;99.90
4604;DHT22;2314;48.272;11.562;2022-09-09T14:31:56;19.90;99.90
4604;DHT22;2314;48.272;11.562;2022-09-09T14:34:26;19.80;99.90
4604;DHT22;2314;48.272;11.562;2022-09-09T14:36:53;19.80;99.90
4604;DHT22;2314;48.272;11.562;2022-09-09T14:39:20;19.70;99.90
4604;DHT22;2314;48.272;11.562;2022-09-09T14:41:47;19.70;99.90
4604;DHT22;2314;48.272;11.562;2022-09-09T14:44:15;19.60;99.90
4604;DHT22;2314;48.272;11.562;2022-09-09T14:46:42;19.60;99.90
4604;DHT22;2314;48.272;11.562;2022-09-09T14:49:09;19.60;99.90
4604;DHT22;2314;48.272;11.562;2022-09-09T14:51:38;19.50;99.90
4604;DHT22;2314;48.272;11.562;2022-09-09T14:54:05;19.50;99.90
4604;DHT22;2314;48.272;11.562;2022-09-09T14:56:33;19.50;99.90
4604;DHT22;2314;48.272;11.562;2022-09-09T14:59:01;19.40;99.90
4604;DHT22;2314;48.272;11.562;2022-09-09T15:01:30;19.40;99.90
4604;DHT22;2314;48.272;11.562;2022-09-09T15:03:59;19.30;99.90
4604;DHT22;2314;48.272;11.562;2022-09-09T15:06:28;19.20;99.90
4604;DHT22;2314;48.272;11.562;2022-09-09T15:08:57;19.10;99.90
4604;DHT22;2314;48.272;11.562;2022-09-09T15:11:26;19.10;99.90
4604;DHT22;2314;48.272;11.562;2022-09-09T15:13:53;19.00;99.90
4604;DHT22;2314;48.272;11.562;2022-09-09T15:16:24;19.00;99.90
4604;DHT22;2314;48.272;11.562;2022-09-09T15:18:56;19.00;99.90
4604;DHT22;2314;48.272;11.562;2022-09-09T15:21:25;19.10;99.90
4604;DHT22;2314;48.272;11.562;2022-09-09T15:23:53;19.30;99.90
4604;DHT22;2314;48.272;11.562;2022-09-09T15:26:20;19.70;99.90
4604;DHT22;2314;48.272;11.562;2022-09-09T15:28:48;20.00;99.90
4604;DHT22;2314;48.272;11.562;2022-09-09T15:31:17;20.30;99.90
4604;DHT22;2314;48.272;11.562;2022-09-09T15:33:49;20.60;99.90
4604;DHT22;2314;48.272;11.562;2022-09-09T15:36:19;20.80;99.90
4604;DHT22;2314;48.272;11.562;2022-09-09T15:38:48;20.80;99.90
4604;DHT22;2314;48.272;11.562;2022-09-09T15:41:17;20.80;99.90
4604;DHT22;2314;48.272;11.562;2022-09-09T15:43:44;20.60;99.90
4604;DHT22;2314;48.272;11.562;2022-09-09T15:46:27;20.40;99.90
4604;DHT22;2314;48.272;11.562;2022-09-09T15:48:57;20.10;99.90
4604;DHT22;2314;48.272;11.562;2022-09-09T15:51:26;19.90;99.90
4604;DHT22;2314;48.272;11.562;2022-09-09T15:53:54;19.70;99.90
4604;DHT22;2314;48.272;11.562;2022-09-09T15:56:22;19.60;99.90
4604;DHT22;2314;48.272;11.562;2022-09-09T15:58:49;19.50;99.90
4604;DHT22;2314;48.272;11.562;2022-09-09T16:01:17;19.50;99.90
4604;DHT22;2314;48.272;11.562;2022-09-09T16:03:45;19.50;99.90
4604;DHT22;2314;48.272;11.562;2022-09-09T16:06:14;19.30;99.90
4604;DHT22;2314;48.272;11.562;2022-09-09T16:08:44;19.20;99.90
4604;DHT22;2314;48.272;11.562;2022-09-09T16:11:13;19.00;99.90
4604;DHT22;2314;48.272;11.562;2022-09-09T16:13:43;18.80;99.90
4604;DHT22;2314;48.272;11.562;2022-09-09T16:16:11;18.80;99.90
4604;DHT22;2314;48.272;11.562;2022-09-09T16:18:41;18.70;99.90
4604;DHT22;2314;48.272;11.562;2022-09-09T16:21:13;18.70;99.90